sensor_id;sensor_type;location;lat;lon;timestamp;pressure;altitude;pressure_sealevel;temperature;humidity
3122;BME280;1571;52.524;14.104;2023-06-19T00:00:17;100829.13;;;15.63;100.00
3122;BME280;1571;52.524;14.104;2023-06-19T00:02:46;100829.47;;;15.81;100.00
3122;BME280;1571;52.524;14.104;2023-06-19T00:05:15;100831.09;;;15.72;100.00
3122;BME280;1571;52.524;14.104;2023-06-19T00:07:43;100834.09;;;15.79;100.00
3122;BME280;1571;52.524;14.104;2023-06-19T00:10:11;100829.66;;;15.89;100.00
3122;BME280;1571;52.524;14.104;2023-06-19T00:12:39;100829.47;;;15.81;100.00
3122;BME280;1571;52.524;14.104;2023-06-19T00:15:09;100835.28;;;15.86;100.00
3122;BME280;1571;52.524;14.104;2023-06-19T00:17:38;100834.50;;;15.95;100.00
3122;BME280;1571;52.524;14.104;2023-06-19T00:20:07;100824.91;;;15.93;100.00
3122;BME280;1571;52.524;14.104;2023-06-19T00:22:36;100831.13;;;15.93;100.00
3122;BME280;1571;52.524;14.104;2023-06-19T00:25:04;100833.75;;;16.05;100.00
3122;BME280;1571;52.524;14.104;2023-06-19T00:27:33;100835.69;;;16.02;100.00
3122;BME280;1571;52.524;14.104;2023-06-19T00:30:01;100821.06;;;16.07;100.00
3122;BME280;1571;52.524;14.104;2023-06-19T00:32:30;100829.50;;;16.02;100.00
3122;BME280;1571;52.524;14.104;2023-06-19T00:35:00;100833.41;;;15.98;100.00
3122;BME280;1571;52.524;14.104;2023-06-19T00:37:29;100831.13;;;15.93;100.00
3122;BME280;1571;52.524;14.104;2023-06-19T00:39:59;100842.81;;;15.92;100.00
3122;BME280;1571;52.524;14.104;2023-06-19T00:42:27;100834.50;;;15.95;100.00
3122;BME280;1571;52.524;14.104;2023-06-19T00:44:56;100839.25;;;15.92;100.00
3122;BME280;1571;52.524;14.104;2023-06-19T00:47:24;100828.66;;;16.01;100.00
3122;BME280;1571;52.524;14.104;2023-06-19T00:49:53;100830.56;;;16.11;100.00
3122;BME280;1571;52.524;14.104;2023-06-19T00:52:23;100841.06;;;16.02;99.77
3122;BME280;1571;52.524;14.104;2023-06-19T00:54:51;100835.97;;;15.99;100.00
3122;BME280;1571;52.524;14.104;2023-06-19T00:57:21;100836.22;;;15.96;100.00
3122;BME280;1571;52.524;14.104;2023-06-19T00:59:50;100824.16;;;16.02;100.00
3122;BME280;1571;52.524;14.104;2023-06-19T01:02:20;100837.97;;;15.86;100.00
3122;BME280;1571;52.524;14.104;2023-06-19T01:04:51;100828.28;;;16.06;100.00
3122;BME280;1571;52.524;14.104;2023-06-19T01:07:29;100830.53;;;15.90;100.00
3122;BME280;1571;52.524;14.104;2023-06-19T01:10:02;100835.78;;;15.80;100.00
3122;BME280;1571;52.524;14.104;2023-06-19T01:12:40;100834.78;;;15.92;100.00
3122;BME280;1571;52.524;14.104;2023-06-19T01:15:15;100836.00;;;15.88;100.00
3122;BME280;1571;52.524;14.104;2023-06-19T01:17:45;100842.31;;;15.87;100.00
3122;BME280;1571;52.524;14.104;2023-06-19T01:20:14;100830.94;;;16.06;100.00
3122;BME280;1571;52.524;14.104;2023-06-19T01:22:45;100831.44;;;16.00;99.90
3122;BME280;1571;52.524;14.104;2023-06-19T01:25:13;100824.06;;;15.92;100.00
3122;BME280;1571;52.524;14.104;2023-06-19T01:27:42;100821.19;;;15.84;100.00
3122;BME280;1571;52.524;14.104;2023-06-19T01:30:11;100835.28;;;15.86;100.00
3122;BME280;1571;52.524;14.104;2023-06-19T01:32:45;100823.75;;;15.86;100.00
3122;BME280;1571;52.524;14.104;2023-06-19T01:35:19;100826.81;;;15.81;100.00
3122;BME280;1571;52.524;14.104;2023-06-19T01:37:49;100822.16;;;15.83;100.00
3122;BME280;1571;52.524;14.104;2023-06-19T01:40:20;100828.75;;;15.79;100.00
3122;BME280;1571;52.524;14.104;2023-06-19T01:42:54;100810.63;;;15.71;100.00
3122;BME280;1571;52.524;14.104;2023-06-19T01:45:22;100815.22;;;15.80;100.00
3122;BME280;1571;52.524;14.104;2023-06-19T01:47:51;100807.59;;;15.65;100.00
3122;BME280;1571;52.524;14.104;2023-06-19T01:50:21;100815.22;;;15.69;100.00
3122;BME280;1571;52.524;14.104;2023-06-19T01:52:52;100806.28;;;15.59;100.00
3122;BME280;1571;52.524;14.104;2023-06-19T01:55:20;100808.84;;;15.72;100.00
3122;BME280;1571;52.524;14.104;2023-06-19T01:57:49;100801.28;;;15.66;100.00
3122;BME280;1571;52.524;14.104;2023-06-19T02:00:18;100799.31;;;15.79;100.00
3122;BME280;1571;52.524;14.104;2023-06-19T02:02:47;100797.50;;;15.68;100.00
3122;BME280;1571;52.524;14.104;2023-06-19T02:05:17;100795.44;;;15.72;100.00
3122;BME280;1571;52.524;14.104;2023-06-19T02:07:45;100795.44;;;15.72;100.00
3122;BME280;1571;52.524;14.104;2023-06-19T02:10:17;100792.72;;;15.83;100.00
3122;BME280;1571;52.524;14.104;2023-06-19T02:12:45;100785.94;;;15.68;100.00
3122;BME280;1571;52.524;14.104;2023-06-19T02:15:14;100778.06;;;15.87;100.00
3122;BME280;1571;52.524;14.104;2023-06-19T02:17:42;100776.91;;;15.80;100.00
3122;BME280;1571;52.524;14.104;2023-06-19T02:20:11;100781.84;;;15.52;100.00
3122;BME280;1571;52.524;14.104;2023-06-19T02:22:40;100777.41;;;15.62;100.00
3122;BME280;1571;52.524;14.104;2023-06-19T02:25:08;100780.97;;;15.63;100.00
3122;BME280;1571;52.524;14.104;2023-06-19T02:27:37;100774.25;;;15.69;100.00
3122;BME280;1571;52.524;14.104;2023-06-19T02:30:07;100769.88;;;15.79;100.00
3122;BME280;1571;52.524;14.104;2023-06-19T02:32:35;100772.78;;;15.65;100.00
3122;BME280;1571;52.524;14.104;2023-06-19T02:35:05;100774.28;;;15.57;100.00
3122;BME280;1571;52.524;14.104;2023-06-19T02:37:35;100776.78;;;15.49;100.00
3122;BME280;1571;52.524;14.104;2023-06-19T02:40:04;100773.09;;;15.50;100.00
3122;BME280;1571;52.524;14.104;2023-06-19T02:42:33;100780.84;;;15.53;100.00
3122;BME280;1571;52.524;14.104;2023-06-19T02:45:03;100779.47;;;15.38;100.00
3122;BME280;1571;52.524;14.104;2023-06-19T02:47:32;100779.59;;;15.36;100.00
3122;BME280;1571;52.524;14.104;2023-06-19T02:50:02;100775.00;;;15.59;100.00
3122;BME280;1571;52.524;14.104;2023-06-19T02:52:31;100776.50;;;15.52;100.00
3122;BME280;1571;52.524;14.104;2023-06-19T02:54:59;100777.72;;;15.48;100.00
3122;BME280;1571;52.524;14.104;2023-06-19T02:57:29;100777.47;;;15.51;100.00
3122;BME280;1571;52.524;14.104;2023-06-19T02:59:57;100775.00;;;15.59;100.00
3122;BME280;1571;52.524;14.104;2023-06-19T03:02:27;100766.41;;;15.56;100.00
3122;BME280;1571;52.524;14.104;2023-06-19T03:04:56;100763.97;;;15.53;100.00
3122;BME280;1571;52.524;14.104;2023-06-19T03:07:24;100772.09;;;15.51;100.00
3122;BME280;1571;52.524;14.104;2023-06-19T03:09:55;100771.22;;;15.62;100.00
3122;BME280;1571;52.524;14.104;2023-06-19T03:12:24;100773.50;;;15.78;100.00
3122;BME280;1571;52.524;14.104;2023-06-19T03:14:52;100765.00;;;15.73;100.00
3122;BME280;1571;52.524;14.104;2023-06-19T03:17:21;100762.88;;;15.88;100.00
3122;BME280;1571;52.524;14.104;2023-06-19T03:19:51;100769.81;;;15.90;100.00
3122;BME280;1571;52.524;14.104;2023-06-19T03:22:20;100765.69;;;15.86;100.00
3122;BME280;1571;52.524;14.104;2023-06-19T03:24:50;100768.47;;;15.85;100.00
3122;BME280;1571;52.524;14.104;2023-06-19T03:27:21;100765.22;;;15.81;100.00
3122;BME280;1571;52.524;14.104;2023-06-19T03:29:49;100775.16;;;15.90;100.00
3122;BME280;1571;52.524;14.104;2023-06-19T03:32:25;100782.69;;;15.96;100.00
3122;BME280;1571;52.524;14.104;2023-06-19T03:34:57;100778.22;;;16.07;100.00
3122;BME280;1571;52.524;14.104;2023-06-19T03:37:26;100773.53;;;16.20;100.00
3122;BME280;1571;52.524;14.104;2023-06-19T03:39:55;100772.13;;;16.26;100.00
3122;BME280;1571;52.524;14.104;2023-06-19T03:42:23;100775.88;;;16.34;100.00
3122;BME280;1571;52.524;14.104;2023-06-19T03:44:51;100772.56;;;16.52;100.00
3122;BME280;1571;52.524;14.104;2023-06-19T03:47:20;100779.38;;;16.56;100.00
3122;BME280;1571;52.524;14.104;2023-06-19T03:49:49;100780.38;;;16.85;100.00
3122;BME280;1571;52.524;14.104;2023-06-19T03:52:20;100786.38;;;17.09;98.66
3122;BME280;1571;52.524;14.104;2023-06-19T03:54:49;100790.78;;;17.19;97.82
3122;BME280;1571;52.524;14.104;2023-06-19T03:57:18;100781.06;;;17.28;97.13
3122;BME280;1571;52.524;14.104;2023-06-19T03:59:46;100789.16;;;17.57;97.60
3122;BME280;1571;52.524;14.104;2023-06-19T04:02:15;100784.38;;;17.71;97.30
3122;BME280;1571;52.524;14.104;2023-06-19T04:04:43;100786.19;;;17.60;97.70
3122;BME280;1571;52.524;14.104;2023-06-19T04:07:12;100787.94;;;17.91;96.97
3122;BME280;1571;52.524;14.104;2023-06-19T04:09:42;100798.19;;;18.15;93.97
3122;BME280;1571;52.524;14.104;2023-06-19T04:12:11;100791.78;;;18.45;93.52
3122;BME280;1571;52.524;14.104;2023-06-19T04:14:39;100790.91;;;18.54;91.08
3122;BME280;1571;52.524;14.104;2023-06-19T04:17:09;100798.25;;;18.62;89.62
3122;BME280;1571;52.524;14.104;2023-06-19T04:19:37;100794.31;;;18.93;87.05
3122;BME280;1571;52.524;14.104;2023-06-19T04:22:05;100795.38;;;19.10;84.00
3122;BME280;1571;52.524;14.104;2023-06-19T04:24:34;100799.31;;;18.88;84.64
3122;BME280;1571;52.524;14.104;2023-06-19T04:27:05;100803.59;;;18.81;84.82
3122;BME280;1571;52.524;14.104;2023-06-19T04:29:35;100803.91;;;18.78;84.98
3122;BME280;1571;52.524;14.104;2023-06-19T04:32:04;100814.63;;;18.68;85.79
3122;BME280;1571;52.524;14.104;2023-06-19T04:34:38;100813.34;;;18.82;86.44
3122;BME280;1571;52.524;14.104;2023-06-19T04:37:07;100805.38;;;19.18;85.31
3122;BME280;1571;52.524;14.104;2023-06-19T04:39:35;100800.06;;;19.54;83.16
3122;BME280;1571;52.524;14.104;2023-06-19T04:42:06;100792.25;;;19.79;82.04
3122;BME280;1571;52.524;14.104;2023-06-19T04:44:34;100790.47;;;19.87;81.04
3122;BME280;1571;52.524;14.104;2023-06-19T04:47:03;100789.41;;;19.80;80.42
3122;BME280;1571;52.524;14.104;2023-06-19T04:49:31;100793.13;;;19.33;80.29
3122;BME280;1571;52.524;14.104;2023-06-19T04:51:59;100798.41;;;18.98;81.53
3122;BME280;1571;52.524;14.104;2023-06-19T04:54:28;100795.06;;;18.86;84.07
3122;BME280;1571;52.524;14.104;2023-06-19T04:56:59;100806.28;;;18.71;83.69
3122;BME280;1571;52.524;14.104;2023-06-19T04:59:30;100819.47;;;18.65;85.11
3122;BME280;1571;52.524;14.104;2023-06-19T05:01:58;100809.31;;;18.59;85.15
3122;BME280;1571;52.524;14.104;2023-06-19T05:04:26;100808.06;;;18.53;85.76
3122;BME280;1571;52.524;14.104;2023-06-19T05:06:54;100808.19;;;18.51;87.62
3122;BME280;1571;52.524;14.104;2023-06-19T05:09:23;100813.84;;;18.58;89.00
3122;BME280;1571;52.524;14.104;2023-06-19T05:11:51;100808.72;;;18.55;88.98
3122;BME280;1571;52.524;14.104;2023-06-19T05:14:20;100813.09;;;18.66;88.70
3122;BME280;1571;52.524;14.104;2023-06-19T05:16:50;100817.94;;;18.52;88.45
3122;BME280;1571;52.524;14.104;2023-06-19T05:19:18;100813.84;;;18.48;88.17
3122;BME280;1571;52.524;14.104;2023-06-19T05:21:46;100817.50;;;18.57;89.43
3122;BME280;1571;52.524;14.104;2023-06-19T05:24:15;100815.50;;;18.59;89.92
3122;BME280;1571;52.524;14.104;2023-06-19T05:26:43;100812.38;;;18.64;90.43
3122;BME280;1571;52.524;14.104;2023-06-19T05:29:11;100812.81;;;18.69;89.00
3122;BME280;1571;52.524;14.104;2023-06-19T05:31:40;100805.03;;;18.66;89.35
3122;BME280;1571;52.524;14.104;2023-06-19T05:34:10;100813.50;;;18.71;88.85
3122;BME280;1571;52.524;14.104;2023-06-19T05:36:38;100805.72;;;18.78;89.48
3122;BME280;1571;52.524;14.104;2023-06-19T05:39:07;100810.66;;;18.82;88.48
3122;BME280;1571;52.524;14.104;2023-06-19T05:41:36;100818.13;;;18.88;88.60
3122;BME280;1571;52.524;14.104;2023-06-19T05:44:05;100820.03;;;18.78;88.30
3122;BME280;1571;52.524;14.104;2023-06-19T05:46:33;100834.47;;;18.77;88.87
3122;BME280;1571;52.524;14.104;2023-06-19T05:49:02;100833.88;;;18.83;88.76
3122;BME280;1571;52.524;14.104;2023-06-19T05:51:31;100838.94;;;18.86;88.20
3122;BME280;1571;52.524;14.104;2023-06-19T05:53:59;100840.47;;;18.99;88.93
3122;BME280;1571;52.524;14.104;2023-06-19T05:56:31;100839.47;;;19.00;88.79
3122;BME280;1571;52.524;14.104;2023-06-19T05:59:00;100843.13;;;19.08;88.92
3122;BME280;1571;52.524;14.104;2023-06-19T06:01:29;100848.94;;;19.31;87.65
3122;BME280;1571;52.524;14.104;2023-06-19T06:03:57;100843.28;;;19.34;86.11
3122;BME280;1571;52.524;14.104;2023-06-19T06:06:26;100844.91;;;19.45;85.98
3122;BME280;1571;52.524;14.104;2023-06-19T06:08:56;100843.28;;;19.34;86.08
3122;BME280;1571;52.524;14.104;2023-06-19T06:11:24;100842.91;;;19.47;86.80
3122;BME280;1571;52.524;14.104;2023-06-19T06:13:53;100843.34;;;19.43;87.04
3122;BME280;1571;52.524;14.104;2023-06-19T06:16:21;100843.84;;;19.56;86.54
3122;BME280;1571;52.524;14.104;2023-06-19T06:18:50;100839.09;;;19.50;86.53
3122;BME280;1571;52.524;14.104;2023-06-19T06:21:18;100838.22;;;19.77;85.84
3122;BME280;1571;52.524;14.104;2023-06-19T06:23:46;100848.69;;;19.80;85.82
3122;BME280;1571;52.524;14.104;2023-06-19T06:26:16;100838.00;;;19.61;84.94
3122;BME280;1571;52.524;14.104;2023-06-19T06:28:45;100828.97;;;19.98;84.26
3122;BME280;1571;52.524;14.104;2023-06-19T06:31:14;100826.75;;;19.93;84.75
3122;BME280;1571;52.524;14.104;2023-06-19T06:33:42;100821.13;;;20.04;83.16
3122;BME280;1571;52.524;14.104;2023-06-19T06:36:10;100826.34;;;19.88;82.94
3122;BME280;1571;52.524;14.104;2023-06-19T06:38:55;100821.13;;;20.04;81.98
3122;BME280;1571;52.524;14.104;2023-06-19T06:41:25;100814.97;;;19.94;82.28
3122;BME280;1571;52.524;14.104;2023-06-19T06:43:53;100813.78;;;20.14;83.32
3122;BME280;1571;52.524;14.104;2023-06-19T06:46:22;100809.44;;;20.22;82.19
3122;BME280;1571;52.524;14.104;2023-06-19T06:48:51;100810.94;;;20.42;82.80
3122;BME280;1571;52.524;14.104;2023-06-19T06:51:19;100808.09;;;20.44;82.45
3122;BME280;1571;52.524;14.104;2023-06-19T06:53:49;100805.38;;;20.62;82.33
3122;BME280;1571;52.524;14.104;2023-06-19T06:56:18;100813.69;;;20.50;81.84
3122;BME280;1571;52.524;14.104;2023-06-19T06:58:48;100816.44;;;20.32;82.92
3122;BME280;1571;52.524;14.104;2023-06-19T07:01:16;100825.94;;;20.18;83.99
3122;BME280;1571;52.524;14.104;2023-06-19T07:03:44;100822.44;;;20.26;83.21
3122;BME280;1571;52.524;14.104;2023-06-19T07:06:13;100821.81;;;20.06;82.62
3122;BME280;1571;52.524;14.104;2023-06-19T07:08:41;100824.09;;;20.01;82.66
3122;BME280;1571;52.524;14.104;2023-06-19T07:11:10;100828.56;;;20.10;82.46
3122;BME280;1571;52.524;14.104;2023-06-19T07:13:38;100834.72;;;20.21;82.45
3122;BME280;1571;52.524;14.104;2023-06-19T07:16:08;100835.91;;;20.00;85.67
3122;BME280;1571;52.524;14.104;2023-06-19T07:18:36;100833.66;;;20.13;84.81
3122;BME280;1571;52.524;14.104;2023-06-19T07:21:09;100833.72;;;20.22;84.12
3122;BME280;1571;52.524;14.104;2023-06-19T07:23:39;100836.50;;;20.12;84.70
3122;BME280;1571;52.524;14.104;2023-06-19T07:26:09;100839.88;;;20.14;84.38
3122;BME280;1571;52.524;14.104;2023-06-19T07:28:37;100841.09;;;20.20;83.50
3122;BME280;1571;52.524;14.104;2023-06-19T07:31:05;100846.56;;;20.28;81.58
3122;BME280;1571;52.524;14.104;2023-06-19T07:33:35;100846.16;;;20.41;80.54
3122;BME280;1571;52.524;14.104;2023-06-19T07:36:04;100842.66;;;20.48;80.29
3122;BME280;1571;52.524;14.104;2023-06-19T07:38:32;100857.22;;;20.55;80.49
3122;BME280;1571;52.524;14.104;2023-06-19T07:41:00;100857.31;;;20.64;80.38
3122;BME280;1571;52.524;14.104;2023-06-19T07:43:29;100856.63;;;20.62;79.60
3122;BME280;1571;52.524;14.104;2023-06-19T07:45:57;100855.03;;;20.77;80.43
3122;BME280;1571;52.524;14.104;2023-06-19T07:48:26;100843.56;;;20.75;79.98
3122;BME280;1571;52.524;14.104;2023-06-19T07:50:56;100845.84;;;20.88;80.30
3122;BME280;1571;52.524;14.104;2023-06-19T07:53:24;100847.56;;;20.97;80.59
3122;BME280;1571;52.524;14.104;2023-06-19T07:55:53;100839.19;;;21.16;79.33
3122;BME280;1571;52.524;14.104;2023-06-19T07:58:21;100847.88;;;21.28;77.82
3122;BME280;1571;52.524;14.104;2023-06-19T08:00:49;100845.59;;;21.41;76.82
3122;BME280;1571;52.524;14.104;2023-06-19T08:03:17;100855.03;;;21.11;79.25
3122;BME280;1571;52.524;14.104;2023-06-19T08:05:46;100860.16;;;21.23;78.92
3122;BME280;1571;52.524;14.104;2023-06-19T08:08:15;100855.78;;;21.30;77.84
3122;BME280;1571;52.524;14.104;2023-06-19T08:10:44;100853.50;;;21.43;75.88
3122;BME280;1571;52.524;14.104;2023-06-19T08:13:12;100846.34;;;21.76;75.26
3122;BME280;1571;52.524;14.104;2023-06-19T08:15:40;100848.56;;;21.89;75.14
3122;BME280;1571;52.524;14.104;2023-06-19T08:18:09;100852.78;;;21.92;74.41
3122;BME280;1571;52.524;14.104;2023-06-19T08:20:37;100852.81;;;22.00;75.07
3122;BME280;1571;52.524;14.104;2023-06-19T08:23:06;100854.94;;;21.72;75.63
3122;BME280;1571;52.524;14.104;2023-06-19T08:25:36;100852.06;;;21.81;75.18
3122;BME280;1571;52.524;14.104;2023-06-19T08:28:04;100852.75;;;21.67;74.97
3122;BME280;1571;52.524;14.104;2023-06-19T08:30:32;100847.34;;;21.75;76.03
3122;BME280;1571;52.524;14.104;2023-06-19T08:33:01;100847.31;;;21.59;74.82
3122;BME280;1571;52.524;14.104;2023-06-19T08:35:29;100856.31;;;21.92;74.32
3122;BME280;1571;52.524;14.104;2023-06-19T08:37:58;100851.25;;;21.81;73.73
3122;BME280;1571;52.524;14.104;2023-06-19T08:40:26;100856.97;;;21.70;73.47
3122;BME280;1571;52.524;14.104;2023-06-19T08:42:56;100855.13;;;21.95;74.25
3122;BME280;1571;52.524;14.104;2023-06-19T08:45:25;100851.41;;;21.88;73.57
3122;BME280;1571;52.524;14.104;2023-06-19T08:47:58;100853.81;;;22.07;73.52
3122;BME280;1571;52.524;14.104;2023-06-19T08:50:26;100847.75;;;22.38;71.81
3122;BME280;1571;52.524;14.104;2023-06-19T08:52:56;100844.69;;;22.57;70.90
3122;BME280;1571;52.524;14.104;2023-06-19T08:55:24;100853.50;;;22.35;72.04
3122;BME280;1571;52.524;14.104;2023-06-19T08:57:53;100854.16;;;22.29;71.28
3122;BME280;1571;52.524;14.104;2023-06-19T09:00:27;100847.72;;;22.13;71.49
3122;BME280;1571;52.524;14.104;2023-06-19T09:03:02;100855.16;;;22.36;72.49
3122;BME280;1571;52.524;14.104;2023-06-19T09:05:41;100852.00;;;22.40;70.20
3122;BME280;1571;52.524;14.104;2023-06-19T09:08:18;100851.97;;;22.24;70.78
3122;BME280;1571;52.524;14.104;2023-06-19T09:10:58;100844.69;;;22.65;69.60
3122;BME280;1571;52.524;14.104;2023-06-19T09:13:26;100851.03;;;22.97;69.67
3122;BME280;1571;52.524;14.104;2023-06-19T09:15:59;100852.63;;;23.23;68.86
3122;BME280;1571;52.524;14.104;2023-06-19T09:18:29;100850.75;;;23.32;68.31
3122;BME280;1571;52.524;14.104;2023-06-19T09:20:58;100853.31;;;23.56;66.71
3122;BME280;1571;52.524;14.104;2023-06-19T09:23:27;100853.06;;;23.43;66.48
3122;BME280;1571;52.524;14.104;2023-06-19T09:25:58;100846.44;;;23.45;66.18
3122;BME280;1571;52.524;14.104;2023-06-19T09:28:31;100857.16;;;23.62;68.08
3122;BME280;1571;52.524;14.104;2023-06-19T09:31:02;100852.22;;;23.74;68.40
3122;BME280;1571;52.524;14.104;2023-06-19T09:33:33;100847.13;;;24.02;65.91
3122;BME280;1571;52.524;14.104;2023-06-19T09:36:03;100850.88;;;24.01;66.52
3122;BME280;1571;52.524;14.104;2023-06-19T09:38:33;100845.09;;;24.42;63.88
3122;BME280;1571;52.524;14.104;2023-06-19T09:41:03;100847.19;;;24.31;66.33
3122;BME280;1571;52.524;14.104;2023-06-19T09:43:34;100846.81;;;23.97;69.10
3122;BME280;1571;52.524;14.104;2023-06-19T09:46:06;100847.50;;;23.76;69.00
3122;BME280;1571;52.524;14.104;2023-06-19T09:48:35;100861.44;;;23.56;70.34
3122;BME280;1571;52.524;14.104;2023-06-19T09:51:12;100848.97;;;23.47;70.07
3122;BME280;1571;52.524;14.104;2023-06-19T09:53:44;100842.91;;;23.76;71.55
3122;BME280;1571;52.524;14.104;2023-06-19T09:56:13;100858.38;;;23.59;71.48
3122;BME280;1571;52.524;14.104;2023-06-19T09:58:42;100855.91;;;23.81;70.35
3122;BME280;1571;52.524;14.104;2023-06-19T10:01:13;100840.50;;;23.81;69.86
3122;BME280;1571;52.524;14.104;2023-06-19T10:03:42;100849.91;;;23.94;69.96
3122;BME280;1571;52.524;14.104;2023-06-19T10:06:14;100849.00;;;24.01;69.55
3122;BME280;1571;52.524;14.104;2023-06-19T10:08:44;100848.88;;;23.95;69.93
3122;BME280;1571;52.524;14.104;2023-06-19T10:11:13;100841.41;;;23.97;68.68
3122;BME280;1571;52.524;14.104;2023-06-19T10:13:42;100846.63;;;23.75;69.46
3122;BME280;1571;52.524;14.104;2023-06-19T10:16:21;100837.38;;;23.93;69.53
3122;BME280;1571;52.524;14.104;2023-06-19T10:18:50;100844.69;;;24.30;69.28
3122;BME280;1571;52.524;14.104;2023-06-19T10:21:19;100835.69;;;24.67;68.56
3122;BME280;1571;52.524;14.104;2023-06-19T10:23:55;100833.63;;;24.69;67.95
3122;BME280;1571;52.524;14.104;2023-06-19T10:26:32;100834.31;;;24.71;66.88
3122;BME280;1571;52.524;14.104;2023-06-19T10:29:13;100828.59;;;25.26;65.87
3122;BME280;1571;52.524;14.104;2023-06-19T10:31:43;100828.75;;;25.39;65.56
3122;BME280;1571;52.524;14.104;2023-06-19T10:34:12;100818.88;;;24.87;63.70
3122;BME280;1571;52.524;14.104;2023-06-19T10:36:40;100823.06;;;24.89;61.92
3122;BME280;1571;52.524;14.104;2023-06-19T10:39:09;100808.19;;;25.00;59.51
3122;BME280;1571;52.524;14.104;2023-06-19T10:41:39;100830.94;;;24.99;62.64
3122;BME280;1571;52.524;14.104;2023-06-19T10:44:08;100822.97;;;25.42;61.91
3122;BME280;1571;52.524;14.104;2023-06-19T10:46:39;100816.50;;;25.28;59.60
3122;BME280;1571;52.524;14.104;2023-06-19T10:49:10;100821.66;;;24.93;59.87
3122;BME280;1571;52.524;14.104;2023-06-19T10:51:41;100815.09;;;25.03;59.66
3122;BME280;1571;52.524;14.104;2023-06-19T10:54:10;100807.34;;;25.00;58.84
3122;BME280;1571;52.524;14.104;2023-06-19T10:56:39;100812.75;;;25.29;59.97
3122;BME280;1571;52.524;14.104;2023-06-19T10:59:09;100810.34;;;25.56;59.78
3122;BME280;1571;52.524;14.104;2023-06-19T11:01:40;100802.13;;;25.71;58.56
3122;BME280;1571;52.524;14.104;2023-06-19T11:04:12;100801.25;;;26.07;58.50
3122;BME280;1571;52.524;14.104;2023-06-19T11:06:41;100806.44;;;26.02;59.69
3122;BME280;1571;52.524;14.104;2023-06-19T11:09:11;100804.91;;;25.77;58.50
3122;BME280;1571;52.524;14.104;2023-06-19T11:11:41;100796.19;;;26.04;56.99
3122;BME280;1571;52.524;14.104;2023-06-19T11:14:12;100798.16;;;26.10;57.25
3122;BME280;1571;52.524;14.104;2023-06-19T11:16:43;100797.50;;;26.08;57.75
3122;BME280;1571;52.524;14.104;2023-06-19T11:19:16;100792.34;;;26.20;57.08
3122;BME280;1571;52.524;14.104;2023-06-19T11:21:46;100792.16;;;26.21;57.65
3122;BME280;1571;52.524;14.104;2023-06-19T11:24:16;100803.69;;;26.23;57.84
3122;BME280;1571;52.524;14.104;2023-06-19T11:26:47;100794.25;;;25.76;57.92
3122;BME280;1571;52.524;14.104;2023-06-19T11:29:20;100796.38;;;26.02;58.12
3122;BME280;1571;52.524;14.104;2023-06-19T11:31:50;100781.94;;;26.02;56.14
3122;BME280;1571;52.524;14.104;2023-06-19T11:34:31;100783.03;;;25.64;56.66
3122;BME280;1571;52.524;14.104;2023-06-19T11:36:59;100785.69;;;25.79;57.76
3122;BME280;1571;52.524;14.104;2023-06-19T11:39:28;100780.66;;;25.98;56.16
3122;BME280;1571;52.524;14.104;2023-06-19T11:41:58;100791.47;;;26.12;56.30
3122;BME280;1571;52.524;14.104;2023-06-19T11:44:26;100783.50;;;26.11;55.30
3122;BME280;1571;52.524;14.104;2023-06-19T11:46:56;100786.88;;;25.70;55.82
3122;BME280;1571;52.524;14.104;2023-06-19T11:49:27;100782.97;;;25.79;56.30
3122;BME280;1571;52.524;14.104;2023-06-19T11:51:59;100780.66;;;25.76;57.26
3122;BME280;1571;52.524;14.104;2023-06-19T11:54:27;100790.47;;;25.55;59.15
3122;BME280;1571;52.524;14.104;2023-06-19T11:56:56;100792.34;;;25.33;56.87
3122;BME280;1571;52.524;14.104;2023-06-19T11:59:24;100788.22;;;25.38;56.85
3122;BME280;1571;52.524;14.104;2023-06-19T12:01:52;100792.16;;;25.57;57.40
3122;BME280;1571;52.524;14.104;2023-06-19T12:04:23;100796.69;;;25.49;60.59
3122;BME280;1571;52.524;14.104;2023-06-19T12:06:53;100778.59;;;25.42;59.78
3122;BME280;1571;52.524;14.104;2023-06-19T12:09:22;100782.50;;;25.18;62.40
3122;BME280;1571;52.524;14.104;2023-06-19T12:11:50;100771.13;;;25.44;59.84
3122;BME280;1571;52.524;14.104;2023-06-19T12:14:18;100769.72;;;25.33;59.49
3122;BME280;1571;52.524;14.104;2023-06-19T12:16:48;100767.50;;;25.22;60.88
3122;BME280;1571;52.524;14.104;2023-06-19T12:19:16;100766.31;;;25.24;59.58
3122;BME280;1571;52.524;14.104;2023-06-19T12:21:47;100759.94;;;25.53;60.81
3122;BME280;1571;52.524;14.104;2023-06-19T12:24:17;100751.06;;;25.66;59.32
3122;BME280;1571;52.524;14.104;2023-06-19T12:26:46;100750.59;;;25.84;60.82
3122;BME280;1571;52.524;14.104;2023-06-19T12:29:14;100754.00;;;25.65;62.00
3122;BME280;1571;52.524;14.104;2023-06-19T12:31:43;100739.09;;;26.04;59.54
3122;BME280;1571;52.524;14.104;2023-06-19T12:34:11;100739.50;;;26.35;57.65
3122;BME280;1571;52.524;14.104;2023-06-19T12:36:57;100731.72;;;26.61;57.04
3122;BME280;1571;52.524;14.104;2023-06-19T12:39:27;100728.59;;;26.57;56.79
3122;BME280;1571;52.524;14.104;2023-06-19T12:41:55;100731.44;;;26.49;56.12
3122;BME280;1571;52.524;14.104;2023-06-19T12:44:23;100726.22;;;26.19;57.07
3122;BME280;1571;52.524;14.104;2023-06-19T12:46:52;100731.44;;;26.49;56.93
3122;BME280;1571;52.524;14.104;2023-06-19T12:49:20;100736.22;;;26.47;57.74
3122;BME280;1571;52.524;14.104;2023-06-19T12:51:49;100731.31;;;26.57;56.84
3122;BME280;1571;52.524;14.104;2023-06-19T12:54:19;100731.34;;;26.70;56.55
3122;BME280;1571;52.524;14.104;2023-06-19T12:56:49;100722.28;;;26.98;56.19
3122;BME280;1571;52.524;14.104;2023-06-19T12:59:18;100736.97;;;26.62;57.67
3122;BME280;1571;52.524;14.104;2023-06-19T13:01:46;100747.03;;;26.62;57.13
3122;BME280;1571;52.524;14.104;2023-06-19T13:04:15;100735.19;;;26.83;57.39
3122;BME280;1571;52.524;14.104;2023-06-19T13:06:43;100732.91;;;26.93;56.03
3122;BME280;1571;52.524;14.104;2023-06-19T13:09:12;100730.94;;;27.22;55.70